createdAt,value
2022-12-08T00:00:32.096Z,13.50
2022-12-08T00:15:34.078Z,12.32
2022-12-08T00:30:35.993Z,13.48
2022-12-08T00:45:37.934Z,11.60
2022-12-08T01:00:43.947Z,20.75
2022-12-08T01:15:45.967Z,19.73
2022-12-08T01:30:47.913Z,18.85
2022-12-08T01:45:49.849Z,18.20
2022-12-08T02:00:52.834Z,16.05
2022-12-08T02:16:33.437Z,16.13
2022-12-08T02:32:00.010Z,17.50
2022-12-08T02:47:12.146Z,13.13
2022-12-08T03:02:17.649Z,12.45
2022-12-08T03:17:22.694Z,13.65
2022-12-08T03:32:37.538Z,12.77
2022-12-08T03:47:39.739Z,14.50
2022-12-08T04:02:41.791Z,13.60
2022-12-08T04:17:43.743Z,13.10
2022-12-08T04:32:47.476Z,12.63
2022-12-08T04:47:49.635Z,16.10
2022-12-08T05:02:51.563Z,12.95
2022-12-08T05:17:53.577Z,15.43
2022-12-08T05:32:55.517Z,19.58
2022-12-08T05:47:57.453Z,18.50
2022-12-08T06:02:59.482Z,17.42
2022-12-08T06:18:01.743Z,15.50
2022-12-08T06:33:03.684Z,16.83
2022-12-08T06:48:05.757Z,17.88
2022-12-08T07:03:09.137Z,17.08
2022-12-08T07:18:11.071Z,24.08
2022-12-08T07:33:12.969Z,18.00
2022-12-08T07:48:14.879Z,16.10
2022-12-08T08:03:16.866Z,16.52
2022-12-08T08:18:18.870Z,18.30
2022-12-08T08:33:21.342Z,16.45
2022-12-08T08:48:23.247Z,18.08
2022-12-08T09:03:25.193Z,15.23
2022-12-08T09:18:27.150Z,14.88
2022-12-08T09:33:29.092Z,14.40
2022-12-08T09:48:45.589Z,13.82
2022-12-08T10:03:48.055Z,14.45
2022-12-08T10:19:01.270Z,14.48
2022-12-08T10:34:15.401Z,13.85
2022-12-08T10:49:27.465Z,16.00
2022-12-08T11:04:36.199Z,13.98
2022-12-08T11:34:56.446Z,11.98
2022-12-08T11:50:16.677Z,12.20
2022-12-08T12:06:03.258Z,11.70
2022-12-08T12:21:17.030Z,22.25
2022-12-08T12:36:19.082Z,20.88
2022-12-08T12:51:46.672Z,37.40
2022-12-08T13:06:50.586Z,22.73
2022-12-08T13:21:52.828Z,28.88
2022-12-08T13:37:15.814Z,14.75
2022-12-08T14:07:56.200Z,14.68
2022-12-08T14:23:01.977Z,17.52
2022-12-08T14:38:15.681Z,17.75
2022-12-08T14:53:18.457Z,23.48
2022-12-08T15:08:20.476Z,21.13
2022-12-08T15:23:35.573Z,25.42
2022-12-08T15:38:38.005Z,27.60
2022-12-08T15:53:40.006Z,28.73
2022-12-08T16:08:52.184Z,35.25
2022-12-08T16:24:09.063Z,32.42
2022-12-08T16:39:13.813Z,29.37
2022-12-08T16:54:15.860Z,40.35
2022-12-08T17:09:17.888Z,43.92
2022-12-08T17:24:22.264Z,33.55
2022-12-08T17:39:25.355Z,34.88
2022-12-08T17:54:28.648Z,33.80
2022-12-08T18:09:31.769Z,32.47
2022-12-08T18:24:33.700Z,37.70
2022-12-08T18:39:35.788Z,36.47
2022-12-08T18:55:07.795Z,34.90
2022-12-08T19:10:00.239Z,36.00
2022-12-08T19:25:02.273Z,31.88
2022-12-08T19:40:24.010Z,30.52
2022-12-08T19:55:26.719Z,27.42
2022-12-08T20:10:33.831Z,31.65
2022-12-08T20:25:39.374Z,33.40
2022-12-08T20:40:47.249Z,33.78
2022-12-08T20:55:49.197Z,34.70
2022-12-08T21:10:55.489Z,36.15
2022-12-08T21:25:57.649Z,30.85
2022-12-08T21:41:08.870Z,32.10
2022-12-08T21:56:11.098Z,32.95
2022-12-08T22:11:13.400Z,41.42
2022-12-08T22:26:15.863Z,32.08
2022-12-08T22:41:18.539Z,32.92
2022-12-08T22:56:20.729Z,36.10
2022-12-08T23:11:26.003Z,34.35
2022-12-08T23:26:30.048Z,36.85
2022-12-08T23:41:33.236Z,33.78
2022-12-08T23:56:35.120Z,33.05
